createdAt,value
2022-07-30T00:00:49.677Z,4.83
2022-07-30T00:03:16.261Z,4.40
2022-07-30T00:05:43.068Z,4.40
2022-07-30T00:08:09.521Z,4.97
2022-07-30T00:10:36.268Z,4.20
2022-07-30T00:13:02.923Z,4.40
2022-07-30T00:15:29.511Z,4.80
2022-07-30T00:17:56.547Z,4.30
2022-07-30T00:20:23.613Z,4.47
2022-07-30T00:22:54.698Z,5.00
2022-07-30T00:25:21.239Z,4.57
2022-07-30T00:27:48.088Z,4.87
2022-07-30T00:30:15.063Z,5.23
2022-07-30T00:32:41.657Z,4.57
2022-07-30T00:35:08.587Z,5.17
2022-07-30T00:37:35.448Z,4.33
2022-07-30T00:40:01.974Z,5.37
2022-07-30T00:42:40.101Z,4.70
2022-07-30T00:45:08.133Z,5.30
2022-07-30T00:47:34.795Z,5.13
2022-07-30T00:50:04.218Z,5.60
2022-07-30T00:52:32.417Z,4.80
2022-07-30T00:55:00.022Z,4.27
2022-07-30T00:57:28.074Z,4.60
2022-07-30T00:59:55.045Z,5.00
2022-07-30T01:02:21.775Z,5.37
2022-07-30T01:04:48.515Z,5.23
2022-07-30T01:07:16.139Z,5.10
2022-07-30T01:09:43.037Z,5.30
2022-07-30T01:12:19.675Z,4.87
2022-07-30T01:14:46.607Z,5.20
2022-07-30T01:17:13.659Z,5.00
2022-07-30T01:19:56.148Z,5.60
2022-07-30T01:22:39.303Z,5.67
2022-07-30T01:25:36.856Z,5.33
2022-07-30T01:28:07.320Z,5.57
2022-07-30T01:30:39.059Z,5.00
2022-07-30T01:33:07.176Z,5.40
2022-07-30T01:35:35.168Z,6.33
2022-07-30T01:38:05.294Z,5.73
2022-07-30T01:40:32.575Z,5.50
2022-07-30T01:43:01.929Z,6.93
2022-07-30T01:45:30.825Z,6.47
2022-07-30T01:48:03.440Z,6.30
2022-07-30T01:50:31.166Z,6.57
2022-07-30T01:52:58.964Z,7.47
2022-07-30T01:55:30.656Z,6.50
2022-07-30T01:57:59.463Z,6.50
2022-07-30T02:00:30.725Z,6.00
2022-07-30T02:02:58.484Z,6.63
2022-07-30T02:05:27.990Z,6.40
2022-07-30T02:08:11.090Z,6.17
2022-07-30T02:10:45.431Z,6.20
2022-07-30T02:13:14.128Z,6.63
2022-07-30T02:15:52.978Z,6.10
2022-07-30T02:18:31.492Z,6.37
2022-07-30T02:21:07.607Z,6.40
2022-07-30T02:23:44.037Z,6.43
2022-07-30T02:26:18.817Z,7.13
2022-07-30T02:28:49.910Z,8.60
2022-07-30T02:31:20.895Z,7.37
2022-07-30T02:33:49.653Z,7.77
2022-07-30T02:36:19.235Z,7.17
2022-07-30T02:38:46.713Z,7.20
2022-07-30T02:41:13.750Z,6.97
2022-07-30T02:43:42.725Z,7.10
2022-07-30T02:46:11.295Z,7.27
2022-07-30T02:48:39.963Z,7.50
2022-07-30T02:51:09.102Z,7.30
2022-07-30T02:53:37.517Z,7.03
2022-07-30T02:56:07.570Z,7.83
2022-07-30T02:58:35.750Z,7.27
2022-07-30T03:01:03.876Z,6.90
2022-07-30T03:03:31.899Z,6.70
2022-07-30T03:06:00.042Z,7.13
2022-07-30T03:08:28.899Z,7.10
2022-07-30T03:10:56.281Z,7.17
2022-07-30T03:13:24.410Z,8.03
2022-07-30T03:15:52.739Z,8.10
2022-07-30T03:18:21.994Z,7.40
2022-07-30T03:20:54.557Z,8.07
2022-07-30T03:23:23.249Z,7.77
2022-07-30T03:25:56.780Z,7.80
2022-07-30T03:28:25.099Z,7.40
2022-07-30T03:30:53.479Z,6.80
2022-07-30T03:33:21.853Z,7.90
2022-07-30T03:35:50.073Z,7.33
2022-07-30T03:38:18.090Z,8.00
2022-07-30T03:40:45.562Z,8.07
2022-07-30T03:43:32.209Z,7.83
2022-07-30T03:46:02.705Z,8.30
2022-07-30T03:48:30.391Z,8.80
2022-07-30T03:50:58.504Z,8.40
2022-07-30T03:53:25.398Z,7.80
2022-07-30T03:55:52.658Z,8.30
2022-07-30T03:58:19.307Z,8.43
2022-07-30T04:00:50.617Z,8.30
2022-07-30T04:03:35.380Z,8.70
2022-07-30T04:06:03.347Z,8.83
2022-07-30T04:08:30.258Z,9.07
2022-07-30T04:10:57.955Z,8.87
2022-07-30T04:13:24.501Z,8.53
2022-07-30T04:16:04.820Z,9.20
2022-07-30T04:18:52.335Z,9.50
2022-07-30T04:21:21.943Z,9.33
2022-07-30T04:24:03.150Z,9.57
2022-07-30T04:26:34.239Z,9.67
2022-07-30T04:29:02.358Z,9.27
2022-07-30T04:31:29.843Z,9.33
2022-07-30T04:33:58.855Z,9.40
2022-07-30T04:36:32.878Z,9.47
2022-07-30T04:39:00.369Z,10.07
2022-07-30T04:41:26.867Z,9.50
2022-07-30T04:43:53.530Z,9.03
2022-07-30T04:46:20.439Z,9.57
2022-07-30T04:48:52.075Z,9.53
2022-07-30T04:51:24.366Z,9.23
2022-07-30T04:53:54.850Z,9.07
2022-07-30T04:56:23.122Z,10.37
2022-07-30T04:58:51.808Z,10.93
2022-07-30T05:01:37.116Z,10.20
2022-07-30T05:04:09.241Z,10.07
2022-07-30T05:06:38.081Z,12.60
2022-07-30T05:09:04.618Z,12.23
2022-07-30T05:11:31.388Z,12.83
2022-07-30T05:13:58.024Z,15.07
2022-07-30T05:16:24.974Z,16.93
2022-07-30T05:18:52.121Z,18.67
2022-07-30T05:21:18.666Z,18.73
2022-07-30T05:23:50.101Z,20.27
2022-07-30T05:26:21.736Z,22.77
2022-07-30T05:28:53.910Z,24.40
2022-07-30T05:31:24.449Z,23.83
2022-07-30T05:33:52.054Z,27.77
2022-07-30T05:36:20.112Z,27.53
2022-07-30T05:38:47.159Z,31.30
2022-07-30T05:41:18.998Z,33.47
2022-07-30T05:43:59.198Z,33.83
2022-07-30T05:46:25.857Z,35.07
2022-07-30T05:48:52.554Z,32.83
2022-07-30T05:51:21.064Z,34.43
2022-07-30T05:53:47.764Z,35.23
2022-07-30T05:56:14.274Z,31.47
2022-07-30T05:58:41.216Z,32.33
2022-07-30T06:01:07.939Z,33.03
2022-07-30T06:03:34.912Z,31.10
2022-07-30T06:06:07.208Z,33.53
2022-07-30T06:08:34.009Z,31.27
2022-07-30T06:11:00.426Z,32.30
2022-07-30T06:13:27.448Z,32.23
2022-07-30T06:15:54.270Z,29.77
2022-07-30T06:18:23.159Z,24.40
2022-07-30T06:20:54.218Z,23.20
2022-07-30T06:23:21.467Z,21.53
2022-07-30T06:25:48.790Z,20.13
2022-07-30T06:28:36.487Z,20.57
2022-07-30T06:31:03.060Z,20.90
2022-07-30T06:33:30.152Z,21.90
2022-07-30T06:35:56.614Z,24.13
2022-07-30T06:38:23.056Z,21.83
2022-07-30T06:40:49.641Z,25.10
2022-07-30T06:43:16.402Z,25.50
2022-07-30T06:45:43.394Z,25.00
2022-07-30T06:48:09.976Z,23.57
2022-07-30T06:50:37.397Z,23.97
2022-07-30T06:53:04.349Z,25.03
2022-07-30T06:55:31.243Z,21.17
2022-07-30T06:57:57.728Z,20.00
2022-07-30T07:00:24.328Z,18.80
2022-07-30T07:02:51.290Z,16.37
2022-07-30T07:05:18.073Z,16.17
2022-07-30T07:07:56.539Z,14.63
2022-07-30T07:10:25.566Z,15.20
2022-07-30T07:12:52.065Z,15.10
2022-07-30T07:15:18.564Z,13.03
2022-07-30T07:17:45.801Z,13.73
2022-07-30T07:20:12.333Z,12.97
2022-07-30T07:22:38.933Z,12.40
2022-07-30T07:25:06.010Z,14.30
2022-07-30T07:27:32.619Z,14.80
2022-07-30T07:30:04.619Z,15.50
2022-07-30T07:32:34.067Z,15.23
2022-07-30T07:35:00.774Z,13.83
2022-07-30T07:37:27.700Z,13.57
2022-07-30T07:39:54.165Z,12.47
2022-07-30T07:42:21.542Z,13.17
2022-07-30T07:44:48.005Z,14.40
2022-07-30T07:47:14.555Z,14.40
2022-07-30T07:49:41.788Z,11.83
2022-07-30T07:52:08.562Z,10.53
2022-07-30T07:54:35.246Z,11.27
2022-07-30T07:57:02.357Z,10.20
2022-07-30T07:59:36.235Z,9.83
2022-07-30T08:02:08.563Z,9.00
2022-07-30T08:04:36.266Z,9.33
2022-07-30T08:07:03.568Z,9.90
2022-07-30T08:09:43.731Z,8.07
2022-07-30T08:12:12.403Z,10.10
2022-07-30T08:14:39.081Z,10.10
2022-07-30T08:17:06.222Z,9.43
2022-07-30T08:19:33.325Z,8.30
2022-07-30T08:21:59.903Z,11.23
2022-07-30T08:24:27.016Z,10.30
2022-07-30T08:26:53.797Z,10.10
2022-07-30T08:29:20.473Z,10.20
2022-07-30T08:31:46.974Z,9.50
2022-07-30T08:34:13.859Z,9.10
2022-07-30T08:36:41.172Z,7.97
2022-07-30T08:39:08.539Z,8.30
2022-07-30T08:41:36.640Z,8.30
2022-07-30T08:44:04.765Z,9.53
2022-07-30T08:46:34.226Z,9.43
2022-07-30T08:49:05.378Z,8.60
2022-07-30T08:51:36.135Z,8.87
2022-07-30T08:54:04.654Z,9.90
2022-07-30T08:56:33.179Z,9.10
2022-07-30T08:59:00.533Z,9.33
2022-07-30T09:01:27.413Z,8.47
2022-07-30T09:03:53.944Z,8.03
2022-07-30T09:06:20.508Z,8.13
2022-07-30T09:08:47.386Z,8.43
2022-07-30T09:11:14.179Z,8.27
2022-07-30T09:13:42.618Z,8.87
2022-07-30T09:16:20.071Z,8.33
2022-07-30T09:18:46.586Z,7.80
2022-07-30T09:21:27.221Z,7.93
2022-07-30T09:24:00.847Z,6.73
2022-07-30T09:26:27.974Z,7.77
2022-07-30T09:28:54.827Z,7.37
2022-07-30T09:31:23.815Z,5.77
2022-07-30T09:33:50.451Z,5.77
2022-07-30T09:36:18.645Z,5.70
2022-07-30T09:38:50.691Z,4.90
2022-07-30T09:41:38.196Z,5.97
2022-07-30T09:44:06.742Z,5.33
2022-07-30T09:46:42.595Z,5.77
2022-07-30T09:49:17.346Z,5.07
2022-07-30T09:51:56.383Z,4.53
2022-07-30T09:54:25.687Z,5.23
2022-07-30T09:57:25.769Z,3.83
2022-07-30T09:59:55.854Z,4.47
2022-07-30T10:02:33.932Z,4.00
2022-07-30T10:05:15.089Z,3.37
2022-07-30T10:08:16.756Z,3.37
2022-07-30T10:10:50.732Z,3.50
2022-07-30T10:13:20.797Z,3.70
2022-07-30T10:15:49.616Z,4.00
2022-07-30T10:18:18.172Z,3.80
2022-07-30T10:20:45.350Z,3.33
2022-07-30T10:23:15.851Z,2.90
2022-07-30T10:25:49.629Z,3.20
2022-07-30T10:28:22.685Z,2.80
2022-07-30T10:30:52.458Z,3.03
2022-07-30T10:33:34.430Z,3.23
2022-07-30T10:36:03.009Z,3.13
2022-07-30T10:38:34.311Z,3.43
2022-07-30T10:41:11.639Z,3.20
2022-07-30T10:43:58.925Z,2.57
2022-07-30T10:47:06.916Z,3.60
2022-07-30T10:49:40.498Z,3.40
2022-07-30T10:52:08.261Z,2.83
2022-07-30T10:54:39.201Z,2.90
2022-07-30T10:57:06.386Z,2.67
2022-07-30T11:00:03.727Z,2.80
2022-07-30T11:02:35.133Z,2.47
2022-07-30T11:05:17.300Z,2.90
2022-07-30T11:07:48.922Z,3.10
2022-07-30T11:10:35.268Z,3.00
2022-07-30T11:13:03.325Z,3.03
2022-07-30T11:15:54.821Z,2.40
2022-07-30T11:18:25.110Z,3.17
2022-07-30T11:21:15.993Z,2.97
2022-07-30T11:23:44.665Z,2.70
2022-07-30T11:26:14.140Z,3.23
2022-07-30T11:28:45.455Z,3.60
2022-07-30T11:31:55.592Z,4.23
2022-07-30T11:34:19.276Z,3.43
2022-07-30T11:37:19.202Z,3.60
2022-07-30T11:39:57.929Z,3.67
2022-07-30T11:42:32.348Z,2.70
2022-07-30T11:45:17.497Z,3.00
2022-07-30T11:47:46.733Z,2.77
2022-07-30T11:50:21.233Z,2.90
2022-07-30T11:53:04.689Z,3.00
2022-07-30T11:55:40.324Z,3.30
2022-07-30T11:58:10.150Z,3.50
2022-07-30T12:00:40.113Z,3.10
2022-07-30T12:03:15.531Z,2.80
2022-07-30T12:05:43.874Z,3.20
2022-07-30T12:08:35.150Z,3.03
2022-07-30T12:11:00.797Z,2.70
2022-07-30T12:13:44.517Z,2.53
2022-07-30T12:16:16.775Z,2.50
2022-07-30T12:18:44.263Z,2.50
2022-07-30T12:21:17.280Z,2.80
2022-07-30T12:24:07.357Z,2.63
2022-07-30T12:26:34.910Z,2.53
2022-07-30T12:29:10.497Z,2.43
2022-07-30T12:31:38.504Z,2.77
2022-07-30T12:34:26.921Z,2.90
2022-07-30T12:36:54.447Z,3.10
2022-07-30T12:39:26.633Z,2.50
2022-07-30T12:41:56.451Z,2.60
2022-07-30T12:44:35.896Z,2.80
2022-07-30T12:47:04.683Z,2.50
2022-07-30T12:49:36.663Z,2.53
2022-07-30T12:52:28.311Z,2.77
2022-07-30T12:55:10.615Z,2.77
2022-07-30T12:58:05.441Z,2.67
2022-07-30T13:00:55.294Z,2.57
2022-07-30T13:03:27.473Z,2.40
2022-07-30T13:05:56.202Z,3.27
2022-07-30T13:08:47.426Z,2.70
2022-07-30T13:11:14.295Z,2.60
2022-07-30T13:13:40.832Z,1.97
2022-07-30T13:16:07.965Z,2.50
2022-07-30T13:18:36.152Z,2.30
2022-07-30T13:21:05.644Z,2.80
2022-07-30T13:23:32.362Z,1.83
2022-07-30T13:25:59.657Z,2.33
2022-07-30T13:28:26.876Z,2.50
2022-07-30T13:30:53.584Z,2.17
2022-07-30T13:33:20.013Z,2.37
2022-07-30T13:35:46.537Z,2.40
2022-07-30T13:38:13.624Z,2.60
2022-07-30T13:40:40.482Z,2.63
2022-07-30T13:43:07.052Z,3.00
2022-07-30T13:45:34.869Z,2.47
2022-07-30T13:48:01.818Z,2.17
2022-07-30T13:50:28.581Z,2.13
2022-07-30T13:52:58.860Z,1.70
2022-07-30T13:55:28.859Z,2.20
2022-07-30T13:57:55.358Z,2.10
2022-07-30T14:00:23.064Z,1.90
2022-07-30T14:02:49.698Z,2.30
2022-07-30T14:05:16.262Z,2.00
2022-07-30T14:07:42.782Z,1.83
2022-07-30T14:10:09.492Z,2.03
2022-07-30T14:12:36.593Z,1.60
2022-07-30T14:15:03.658Z,1.63
2022-07-30T14:17:30.330Z,1.63
2022-07-30T14:19:56.833Z,1.93
2022-07-30T14:22:24.090Z,1.90
2022-07-30T14:24:50.528Z,1.73
2022-07-30T14:27:20.324Z,1.53
2022-07-30T14:29:47.248Z,2.10
2022-07-30T14:32:13.784Z,2.00
2022-07-30T14:34:40.256Z,1.60
2022-07-30T14:37:06.728Z,1.80
2022-07-30T14:39:36.136Z,2.13
2022-07-30T14:42:02.915Z,1.87
2022-07-30T14:44:29.930Z,1.57
2022-07-30T14:46:56.386Z,1.87
2022-07-30T14:49:24.110Z,1.90
2022-07-30T14:51:51.393Z,1.90
2022-07-30T14:54:18.220Z,1.93
2022-07-30T14:56:44.712Z,1.97
2022-07-30T14:59:11.292Z,2.10
2022-07-30T15:01:37.922Z,2.00
2022-07-30T15:04:09.332Z,1.93
2022-07-30T15:06:37.290Z,2.30
2022-07-30T15:09:04.520Z,1.90
2022-07-30T15:11:40.289Z,2.13
2022-07-30T15:14:17.081Z,2.17
2022-07-30T15:16:46.429Z,2.10
2022-07-30T15:19:13.745Z,2.07
2022-07-30T15:21:40.221Z,1.90
2022-07-30T15:24:06.757Z,1.70
2022-07-30T15:26:33.288Z,1.60
2022-07-30T15:29:00.134Z,1.80
2022-07-30T15:31:26.603Z,1.77
2022-07-30T15:33:53.418Z,1.60
2022-07-30T15:36:20.131Z,2.07
2022-07-30T15:38:47.110Z,2.20
2022-07-30T15:41:14.042Z,2.00
2022-07-30T15:43:40.632Z,1.97
2022-07-30T15:46:07.060Z,1.80
2022-07-30T15:48:33.653Z,1.83
2022-07-30T15:51:02.978Z,1.97
2022-07-30T15:53:31.166Z,2.00
2022-07-30T15:55:59.293Z,1.77
2022-07-30T15:58:25.849Z,2.13
2022-07-30T16:00:52.509Z,2.13
2022-07-30T16:03:19.073Z,2.20
2022-07-30T16:05:51.744Z,7.83
2022-07-30T16:08:19.284Z,15.70
2022-07-30T16:10:46.096Z,26.20
2022-07-30T16:13:12.602Z,30.63
2022-07-30T16:15:39.169Z,28.77
2022-07-30T16:18:06.379Z,6.33
2022-07-30T16:20:33.380Z,5.57
2022-07-30T16:23:00.163Z,26.83
2022-07-30T16:25:26.884Z,10.83
2022-07-30T16:27:53.450Z,3.37
2022-07-30T16:30:20.004Z,2.93
2022-07-30T16:32:46.666Z,3.00
2022-07-30T16:35:13.642Z,2.80
2022-07-30T16:37:40.298Z,2.30
2022-07-30T16:40:07.197Z,2.63
2022-07-30T16:42:33.703Z,2.90
2022-07-30T16:45:00.284Z,3.20
2022-07-30T16:47:26.678Z,5.73
2022-07-30T16:49:53.196Z,5.43
2022-07-30T16:52:19.722Z,10.10
2022-07-30T16:54:46.722Z,5.03
2022-07-30T16:57:13.433Z,5.80
2022-07-30T16:59:42.273Z,3.80
2022-07-30T17:02:10.746Z,3.67
2022-07-30T17:04:39.046Z,3.10
2022-07-30T17:07:05.501Z,3.40
2022-07-30T17:09:36.748Z,3.53
2022-07-30T17:12:06.249Z,2.30
2022-07-30T17:14:39.091Z,2.10
2022-07-30T17:17:05.535Z,2.20
2022-07-30T17:19:32.070Z,2.30
2022-07-30T17:21:58.871Z,2.30
2022-07-30T17:24:25.403Z,1.90
2022-07-30T17:26:51.878Z,2.00
2022-07-30T17:29:18.525Z,3.00
2022-07-30T17:31:45.507Z,2.40
2022-07-30T17:34:13.920Z,2.40
2022-07-30T17:36:50.197Z,2.00
2022-07-30T17:40:28.094Z,2.07
2022-07-30T17:42:05.856Z,2.37
2022-07-30T17:44:32.324Z,2.50
2022-07-30T17:46:58.978Z,2.37
2022-07-30T17:49:27.861Z,2.17
2022-07-30T17:51:54.741Z,2.00
2022-07-30T17:54:21.264Z,1.90
2022-07-30T17:56:47.728Z,1.80
2022-07-30T17:59:14.247Z,2.37
2022-07-30T18:01:40.813Z,2.87
2022-07-30T18:04:07.269Z,2.30
2022-07-30T18:06:33.801Z,2.00
2022-07-30T18:09:00.241Z,2.13
2022-07-30T18:11:26.736Z,2.50
2022-07-30T18:13:54.285Z,1.97
2022-07-30T18:16:20.748Z,2.30
2022-07-30T18:18:47.214Z,1.90
2022-07-30T18:21:13.852Z,2.20
2022-07-30T18:23:40.557Z,2.10
2022-07-30T18:26:07.289Z,2.13
2022-07-30T18:28:33.982Z,2.87
2022-07-30T18:31:00.474Z,2.10
2022-07-30T18:33:26.973Z,2.20
2022-07-30T18:35:53.802Z,2.20
2022-07-30T18:38:20.592Z,2.20
2022-07-30T18:40:57.499Z,2.27
2022-07-30T18:43:26.006Z,2.10
2022-07-30T18:45:53.439Z,3.03
2022-07-30T18:48:19.999Z,3.10
2022-07-30T18:50:46.747Z,3.10
2022-07-30T18:53:15.039Z,2.80
2022-07-30T18:55:43.189Z,3.43
2022-07-30T18:58:10.051Z,2.40
2022-07-30T19:00:37.305Z,2.30
2022-07-30T19:03:04.359Z,2.17
2022-07-30T19:05:31.304Z,1.90
2022-07-30T19:07:58.785Z,2.00
2022-07-30T19:10:26.597Z,2.00
2022-07-30T19:12:53.926Z,1.97
2022-07-30T19:15:20.663Z,2.00
2022-07-30T19:17:48.959Z,2.00
2022-07-30T19:20:15.577Z,2.33
2022-07-30T19:22:42.112Z,2.00
2022-07-30T19:25:09.355Z,2.23
2022-07-30T19:27:35.902Z,2.20
2022-07-30T19:30:03.681Z,2.20
2022-07-30T19:32:30.360Z,2.20
2022-07-30T19:34:56.915Z,2.10
2022-07-30T19:37:23.718Z,1.90
2022-07-30T19:40:05.557Z,1.87
2022-07-30T19:42:33.789Z,2.10
2022-07-30T19:45:04.380Z,2.20
2022-07-30T19:47:39.263Z,2.03
2022-07-30T19:50:07.454Z,2.40
2022-07-30T19:52:35.848Z,2.27
2022-07-30T19:55:04.169Z,2.20
2022-07-30T19:57:53.208Z,2.53
2022-07-30T20:00:24.596Z,2.47
2022-07-30T20:02:52.354Z,2.27
2022-07-30T20:05:19.884Z,2.20
2022-07-30T20:07:47.118Z,2.40
2022-07-30T20:10:16.249Z,2.10
2022-07-30T20:12:49.440Z,2.17
2022-07-30T20:15:16.999Z,2.10
2022-07-30T20:17:43.570Z,2.20
2022-07-30T20:20:13.793Z,2.20
2022-07-30T20:22:41.061Z,2.10
2022-07-30T20:25:08.808Z,2.20
2022-07-30T20:27:38.594Z,2.10
2022-07-30T20:30:06.248Z,2.17
2022-07-30T20:32:34.310Z,2.30
2022-07-30T20:35:00.831Z,2.33
2022-07-30T20:37:27.850Z,2.60
2022-07-30T20:39:55.487Z,2.50
2022-07-30T20:42:23.937Z,2.47
2022-07-30T20:44:53.606Z,2.53
2022-07-30T20:47:34.407Z,2.70
2022-07-30T20:50:06.051Z,2.57
2022-07-30T20:52:40.319Z,2.90
2022-07-30T20:55:16.651Z,2.90
2022-07-30T20:57:56.873Z,2.80
2022-07-30T21:00:29.456Z,2.70
2022-07-30T21:02:55.906Z,2.80
2022-07-30T21:05:22.415Z,2.77
2022-07-30T21:07:53.908Z,2.60
2022-07-30T21:10:23.635Z,2.80
2022-07-30T21:13:08.923Z,3.07
2022-07-30T21:15:36.551Z,2.90
2022-07-30T21:18:12.350Z,2.63
2022-07-30T21:20:38.821Z,2.53
2022-07-30T21:23:10.200Z,2.70
2022-07-30T21:26:00.354Z,3.10
2022-07-30T21:28:27.612Z,2.60
2022-07-30T21:30:54.676Z,3.17
2022-07-30T21:33:24.093Z,3.00
2022-07-30T21:35:57.487Z,2.70
2022-07-30T21:38:26.315Z,4.67
2022-07-30T21:40:52.927Z,4.47
2022-07-30T21:43:28.732Z,4.73
2022-07-30T21:45:57.079Z,4.37
2022-07-30T21:48:24.684Z,2.97
2022-07-30T21:50:52.701Z,2.73
2022-07-30T21:53:29.474Z,3.20
2022-07-30T21:56:05.988Z,2.90
2022-07-30T21:58:32.664Z,2.70
2022-07-30T22:01:16.350Z,2.73
2022-07-30T22:04:03.604Z,2.77
2022-07-30T22:06:36.607Z,2.80
2022-07-30T22:09:19.698Z,3.13
2022-07-30T22:11:54.270Z,3.10
2022-07-30T22:14:20.787Z,2.77
2022-07-30T22:16:47.498Z,3.00
2022-07-30T22:19:15.143Z,2.93
2022-07-30T22:21:42.843Z,2.97
2022-07-30T22:24:28.892Z,3.60
2022-07-30T22:27:01.736Z,3.10
2022-07-30T22:29:41.510Z,3.03
2022-07-30T22:32:09.233Z,3.00
2022-07-30T22:34:35.706Z,3.13
2022-07-30T22:37:02.760Z,2.97
2022-07-30T22:39:31.746Z,2.93
2022-07-30T22:42:16.255Z,3.23
2022-07-30T22:44:45.684Z,2.80
2022-07-30T22:47:18.641Z,3.10
2022-07-30T22:49:56.760Z,2.50
2022-07-30T22:52:28.951Z,2.63
2022-07-30T22:54:57.841Z,3.13
2022-07-30T22:57:27.372Z,3.20
2022-07-30T22:59:58.198Z,2.83
2022-07-30T23:02:27.787Z,3.23
2022-07-30T23:04:54.890Z,3.40
2022-07-30T23:07:23.474Z,3.50
2022-07-30T23:09:55.669Z,3.43
2022-07-30T23:12:23.289Z,3.30
2022-07-30T23:14:49.839Z,2.90
2022-07-30T23:17:16.663Z,3.43
2022-07-30T23:19:43.132Z,3.43
2022-07-30T23:22:10.212Z,3.13
2022-07-30T23:24:37.031Z,3.03
2022-07-30T23:27:04.447Z,2.90
2022-07-30T23:29:31.471Z,3.10
2022-07-30T23:31:57.888Z,2.63
2022-07-30T23:34:24.329Z,2.80
2022-07-30T23:36:50.859Z,3.07
2022-07-30T23:39:19.547Z,2.73
2022-07-30T23:41:46.618Z,2.80
2022-07-30T23:44:13.096Z,2.63
2022-07-30T23:46:40.792Z,2.90
2022-07-30T23:49:07.630Z,2.40
2022-07-30T23:51:34.316Z,2.50
2022-07-30T23:54:01.422Z,2.60
2022-07-30T23:56:27.902Z,2.37
2022-07-30T23:58:54.628Z,2.50
